createdAt,value
2018-03-29T00:00:36.921Z,89.90
2018-03-29T00:03:05.190Z,89.80
2018-03-29T00:05:32.694Z,89.70
2018-03-29T00:08:00.224Z,89.90
2018-03-29T00:10:28.492Z,89.80
2018-03-29T00:12:56.759Z,89.70
2018-03-29T00:15:25.024Z,90.10
2018-03-29T00:17:54.053Z,89.50
2018-03-29T00:20:21.559Z,89.50
2018-03-29T00:22:49.055Z,89.80
2018-03-29T00:25:17.321Z,90.10
2018-03-29T00:27:45.612Z,90.10
2018-03-29T00:30:13.890Z,90.20
2018-03-29T00:32:42.163Z,90.10
2018-03-29T00:35:10.431Z,90.10
2018-03-29T00:37:38.711Z,90.20
2018-03-29T00:40:07.023Z,90.20
2018-03-29T00:42:34.536Z,90.20
2018-03-29T00:45:02.143Z,90.20
2018-03-29T00:47:29.643Z,90.20
2018-03-29T00:49:57.141Z,90.20
2018-03-29T00:52:24.643Z,90.20
2018-03-29T00:54:52.141Z,90.10
2018-03-29T00:57:20.419Z,90.30
2018-03-29T00:59:48.695Z,90.30
2018-03-29T01:02:16.951Z,90.30
2018-03-29T01:04:44.462Z,90.30
2018-03-29T01:07:11.955Z,90.30
2018-03-29T01:09:39.844Z,90.40
2018-03-29T01:12:07.345Z,90.50
2018-03-29T01:14:34.863Z,90.30
2018-03-29T01:17:03.123Z,90.40
2018-03-29T01:19:30.620Z,90.60
2018-03-29T01:21:58.883Z,91.10
2018-03-29T01:24:27.166Z,91.30
2018-03-29T01:26:55.450Z,91.40
2018-03-29T01:29:22.948Z,91.40
2018-03-29T01:31:50.462Z,91.40
2018-03-29T01:34:18.731Z,91.60
2018-03-29T01:36:46.997Z,91.60
2018-03-29T01:39:15.259Z,91.70
2018-03-29T01:41:42.760Z,91.70
2018-03-29T01:44:10.264Z,91.80
2018-03-29T01:46:37.779Z,91.90
2018-03-29T01:49:05.274Z,92.00
2018-03-29T01:51:32.800Z,92.00
2018-03-29T01:54:00.303Z,91.80
2018-03-29T01:56:27.802Z,91.80
2018-03-29T01:58:56.078Z,91.60
2018-03-29T02:01:24.355Z,91.40
2018-03-29T02:03:52.631Z,91.30
2018-03-29T02:06:20.903Z,91.60
2018-03-29T02:08:49.167Z,91.20
2018-03-29T02:11:17.436Z,91.30
2018-03-29T02:13:44.950Z,91.30
2018-03-29T02:16:12.444Z,91.80
2018-03-29T02:18:39.935Z,91.50
2018-03-29T02:21:08.216Z,91.40
2018-03-29T02:23:35.711Z,91.40
2018-03-29T02:26:03.226Z,91.40
2018-03-29T02:28:31.502Z,91.10
2018-03-29T02:30:59.765Z,90.90
2018-03-29T02:33:28.033Z,90.70
2018-03-29T02:35:55.546Z,90.70
2018-03-29T02:38:23.051Z,90.70
2018-03-29T02:40:50.545Z,90.50
2018-03-29T02:43:18.040Z,91.10
2018-03-29T02:45:45.527Z,91.00
2018-03-29T02:48:13.795Z,91.30
2018-03-29T02:50:41.283Z,91.30
2018-03-29T02:53:08.784Z,91.80
2018-03-29T02:55:36.283Z,92.10
2018-03-29T02:58:04.564Z,91.60
2018-03-29T03:00:32.819Z,91.50
2018-03-29T03:03:00.321Z,91.40
2018-03-29T03:05:27.815Z,91.70
2018-03-29T03:07:55.319Z,91.80
2018-03-29T03:10:23.571Z,91.20
2018-03-29T03:12:51.075Z,91.10
2018-03-29T03:15:18.582Z,90.60
2018-03-29T03:17:46.201Z,90.30
2018-03-29T03:20:13.687Z,90.00
2018-03-29T03:22:41.199Z,90.10
2018-03-29T03:25:08.707Z,89.90
2018-03-29T03:27:36.192Z,89.70
2018-03-29T03:30:03.710Z,89.80
2018-03-29T03:32:31.199Z,89.50
2018-03-29T03:34:59.467Z,89.40
2018-03-29T03:37:26.955Z,89.40
2018-03-29T03:39:55.261Z,89.30
2018-03-29T03:42:22.750Z,89.20
2018-03-29T03:44:50.238Z,89.30
2018-03-29T03:47:18.502Z,89.50
2018-03-29T03:49:46.009Z,89.40
2018-03-29T03:52:13.500Z,89.50
2018-03-29T03:54:40.995Z,89.60
2018-03-29T03:57:09.270Z,89.80
2018-03-29T03:59:37.540Z,89.40
2018-03-29T04:02:05.814Z,88.60
2018-03-29T04:04:33.319Z,88.60
2018-03-29T04:07:00.813Z,89.00
2018-03-29T04:09:28.332Z,89.60
2018-03-29T04:11:55.839Z,90.00
2018-03-29T04:14:23.346Z,90.10
2018-03-29T04:16:50.843Z,90.20
2018-03-29T04:19:18.338Z,90.40
2018-03-29T04:21:46.592Z,90.40
2018-03-29T04:24:14.200Z,90.40
2018-03-29T04:26:41.728Z,90.40
2018-03-29T04:29:09.990Z,90.40
2018-03-29T04:31:37.492Z,90.30
2018-03-29T04:34:05.133Z,90.50
2018-03-29T04:36:32.742Z,90.40
2018-03-29T04:39:00.275Z,90.40
2018-03-29T04:41:27.775Z,90.40
2018-03-29T04:43:55.259Z,90.60
2018-03-29T04:46:23.515Z,90.20
2018-03-29T04:48:51.008Z,90.10
2018-03-29T04:51:18.496Z,89.30
2018-03-29T04:53:45.986Z,88.20
2018-03-29T04:56:13.503Z,87.70
2018-03-29T04:58:40.999Z,87.80
2018-03-29T05:01:08.524Z,86.50
2018-03-29T05:03:36.011Z,85.90
2018-03-29T05:06:03.516Z,84.00
2018-03-29T05:08:31.029Z,83.60
2018-03-29T05:10:58.523Z,82.80
2018-03-29T05:13:26.063Z,82.10
2018-03-29T05:15:53.555Z,81.70
2018-03-29T05:18:21.051Z,80.40
2018-03-29T05:20:48.543Z,79.60
2018-03-29T05:23:16.811Z,78.50
2018-03-29T05:25:46.247Z,78.40
2018-03-29T05:28:13.752Z,78.10
2018-03-29T05:30:41.279Z,79.20
2018-03-29T05:33:08.775Z,79.90
2018-03-29T05:35:36.266Z,80.50
2018-03-29T05:38:04.527Z,79.90
2018-03-29T05:40:32.029Z,79.90
2018-03-29T05:42:59.535Z,80.20
2018-03-29T05:45:27.037Z,80.70
2018-03-29T05:47:54.544Z,80.80
2018-03-29T05:50:22.059Z,80.80
2018-03-29T05:52:49.574Z,80.20
2018-03-29T05:55:17.183Z,79.80
2018-03-29T05:57:44.679Z,80.20
2018-03-29T06:00:12.186Z,80.40
2018-03-29T06:02:39.710Z,80.70
2018-03-29T06:05:07.194Z,80.30
2018-03-29T06:07:34.711Z,79.80
2018-03-29T06:10:02.220Z,79.80
2018-03-29T06:12:29.715Z,79.80
2018-03-29T06:14:57.229Z,79.90
2018-03-29T06:17:26.523Z,80.40
2018-03-29T06:19:54.783Z,80.60
2018-03-29T06:22:23.046Z,80.60
2018-03-29T06:24:50.539Z,80.60
2018-03-29T06:27:18.836Z,80.60
2018-03-29T06:29:46.344Z,80.40
2018-03-29T06:32:13.835Z,80.50
2018-03-29T06:34:41.353Z,80.60
2018-03-29T06:37:08.879Z,80.20
2018-03-29T06:39:36.389Z,80.60
2018-03-29T06:42:04.651Z,80.60
2018-03-29T06:44:32.154Z,80.50
2018-03-29T06:46:59.769Z,80.50
2018-03-29T06:49:27.239Z,80.60
2018-03-29T06:51:54.741Z,81.00
2018-03-29T06:54:22.255Z,81.00
2018-03-29T06:56:50.515Z,81.30
2018-03-29T06:59:19.517Z,81.10
2018-03-29T07:01:47.027Z,81.00
2018-03-29T07:04:14.522Z,79.60
2018-03-29T07:06:42.015Z,79.40
2018-03-29T07:09:10.278Z,77.50
2018-03-29T07:11:38.551Z,78.40
2018-03-29T07:14:06.049Z,77.90
2018-03-29T07:16:33.547Z,76.30
2018-03-29T07:19:01.056Z,75.40
2018-03-29T07:21:28.554Z,74.30
2018-03-29T07:23:56.058Z,73.30
2018-03-29T07:26:24.328Z,74.50
2018-03-29T07:28:52.596Z,73.10
2018-03-29T07:31:20.103Z,73.00
2018-03-29T07:33:47.624Z,73.80
2018-03-29T07:36:15.924Z,73.00
2018-03-29T07:38:43.434Z,73.00
2018-03-29T07:41:10.927Z,73.20
2018-03-29T07:43:39.215Z,73.20
2018-03-29T07:46:06.775Z,73.20
2018-03-29T07:48:34.228Z,73.40
2018-03-29T07:51:01.729Z,72.90
2018-03-29T07:53:29.235Z,72.80
2018-03-29T07:55:57.510Z,70.90
2018-03-29T07:58:25.775Z,69.50
2018-03-29T08:00:54.039Z,69.80
2018-03-29T08:03:21.555Z,69.80
2018-03-29T08:05:49.054Z,70.30
2018-03-29T08:08:16.571Z,69.60
2018-03-29T08:10:44.079Z,70.10
2018-03-29T08:13:11.582Z,70.30
2018-03-29T08:15:39.098Z,69.70
2018-03-29T08:18:06.612Z,69.00
2018-03-29T08:20:34.107Z,69.00
2018-03-29T08:23:01.616Z,68.60
2018-03-29T08:25:29.115Z,68.80
2018-03-29T08:27:56.619Z,67.90
2018-03-29T08:30:24.163Z,66.90
2018-03-29T08:32:52.443Z,67.30
2018-03-29T08:35:20.703Z,67.40
2018-03-29T08:37:48.985Z,67.30
2018-03-29T08:40:17.248Z,66.70
2018-03-29T08:42:44.740Z,66.50
2018-03-29T08:45:12.260Z,66.60
2018-03-29T08:47:39.781Z,66.30
2018-03-29T08:50:07.294Z,66.80
2018-03-29T08:52:35.566Z,66.70
2018-03-29T08:55:03.851Z,66.30
2018-03-29T08:57:32.928Z,65.80
2018-03-29T09:00:00.425Z,65.70
2018-03-29T09:02:27.928Z,66.10
2018-03-29T09:04:55.458Z,65.80
2018-03-29T09:07:22.959Z,65.40
2018-03-29T09:09:50.472Z,65.20
2018-03-29T09:12:17.979Z,65.20
2018-03-29T09:14:45.481Z,64.00
2018-03-29T09:17:12.986Z,64.10
2018-03-29T09:19:40.500Z,64.50
2018-03-29T09:22:08.006Z,64.00
2018-03-29T09:24:35.515Z,63.40
2018-03-29T09:27:03.023Z,64.10
2018-03-29T09:29:30.520Z,62.30
2018-03-29T09:31:58.023Z,62.30
2018-03-29T09:34:25.522Z,61.10
2018-03-29T09:36:53.810Z,60.40
2018-03-29T09:39:21.331Z,60.40
2018-03-29T09:41:48.832Z,60.00
2018-03-29T09:44:16.339Z,58.30
2018-03-29T09:46:44.100Z,57.90
2018-03-29T09:49:11.614Z,56.40
2018-03-29T09:51:39.120Z,55.10
2018-03-29T09:54:06.628Z,56.10
2018-03-29T09:56:34.151Z,56.50
2018-03-29T09:59:02.074Z,55.90
2018-03-29T10:01:34.420Z,55.60
2018-03-29T10:04:07.703Z,55.50
2018-03-29T10:06:51.946Z,54.40
2018-03-29T10:09:20.239Z,54.60
2018-03-29T10:11:48.503Z,54.80
2018-03-29T10:14:16.775Z,53.90
2018-03-29T10:16:45.056Z,54.70
2018-03-29T10:19:13.431Z,53.80
2018-03-29T10:21:42.615Z,54.30
2018-03-29T10:24:10.138Z,53.90
2018-03-29T10:26:37.661Z,55.10
2018-03-29T10:29:05.922Z,53.50
2018-03-29T10:31:34.187Z,54.20
2018-03-29T10:34:01.691Z,54.20
2018-03-29T10:36:29.232Z,54.70
2018-03-29T10:38:57.511Z,54.40
2018-03-29T10:41:25.007Z,54.40
2018-03-29T10:43:52.515Z,54.90
2018-03-29T10:46:20.785Z,54.40
2018-03-29T10:48:49.051Z,53.70
2018-03-29T10:51:16.565Z,53.60
2018-03-29T10:53:44.079Z,55.40
2018-03-29T10:56:11.686Z,54.60
2018-03-29T10:58:39.191Z,51.40
2018-03-29T11:01:06.683Z,50.50
2018-03-29T11:03:34.184Z,51.80
2018-03-29T11:06:01.704Z,51.50
2018-03-29T11:08:29.199Z,51.80
2018-03-29T11:10:56.696Z,51.30
2018-03-29T11:13:24.963Z,49.80
2018-03-29T11:15:52.452Z,49.80
2018-03-29T11:18:19.951Z,49.40
2018-03-29T11:20:47.448Z,49.70
2018-03-29T11:23:15.707Z,49.20
2018-03-29T11:25:43.199Z,49.20
2018-03-29T11:28:10.748Z,49.00
2018-03-29T11:30:39.015Z,49.40
2018-03-29T11:33:07.294Z,49.50
2018-03-29T11:35:35.563Z,50.50
2018-03-29T11:38:03.844Z,49.50
2018-03-29T11:40:32.115Z,50.10
2018-03-29T11:42:59.617Z,50.10
2018-03-29T11:45:27.112Z,49.30
2018-03-29T11:47:54.623Z,49.00
2018-03-29T11:50:22.110Z,47.80
2018-03-29T11:52:49.623Z,47.80
2018-03-29T11:55:17.912Z,48.50
2018-03-29T11:57:45.406Z,48.50
2018-03-29T12:00:12.895Z,48.70
2018-03-29T12:02:40.443Z,48.80
2018-03-29T12:05:07.964Z,49.20
2018-03-29T12:07:35.488Z,47.20
2018-03-29T12:10:03.768Z,49.10
2018-03-29T12:12:33.016Z,48.60
2018-03-29T12:15:00.607Z,48.60
2018-03-29T12:17:28.131Z,49.30
2018-03-29T12:19:55.640Z,49.00
2018-03-29T12:22:23.906Z,47.70
2018-03-29T12:24:51.396Z,47.70
2018-03-29T12:27:18.893Z,47.50
2018-03-29T12:29:46.391Z,47.50
2018-03-29T12:32:14.656Z,46.90
2018-03-29T12:34:42.152Z,46.90
2018-03-29T12:37:09.778Z,47.20
2018-03-29T12:39:38.089Z,47.60
2018-03-29T12:42:07.546Z,48.80
2018-03-29T12:44:35.068Z,48.20
2018-03-29T12:47:02.580Z,47.30
2018-03-29T12:49:30.839Z,46.80
2018-03-29T12:51:58.356Z,46.80
2018-03-29T12:54:38.551Z,47.60
2018-03-29T12:57:19.587Z,47.50
2018-03-29T12:59:47.091Z,47.40
2018-03-29T13:02:14.598Z,48.20
2018-03-29T13:04:42.094Z,47.60
2018-03-29T13:07:09.609Z,47.30
2018-03-29T13:09:37.123Z,47.20
2018-03-29T13:12:04.611Z,48.00
2018-03-29T13:14:32.111Z,46.70
2018-03-29T13:16:59.611Z,46.80
2018-03-29T13:19:27.878Z,47.90
2018-03-29T13:21:56.155Z,48.60
2018-03-29T13:24:23.666Z,48.40
2018-03-29T13:26:51.186Z,48.70
2018-03-29T13:29:19.454Z,47.90
2018-03-29T13:31:47.727Z,49.20
2018-03-29T13:34:16.011Z,49.60
2018-03-29T13:36:44.296Z,49.20
2018-03-29T13:39:11.874Z,49.20
2018-03-29T13:41:39.379Z,49.70
2018-03-29T13:44:06.925Z,49.10
2018-03-29T13:46:34.439Z,49.70
2018-03-29T13:49:01.942Z,48.90
2018-03-29T13:51:29.443Z,49.70
2018-03-29T13:53:57.763Z,50.10
2018-03-29T13:56:25.239Z,50.00
2018-03-29T13:58:52.738Z,49.80
2018-03-29T14:01:21.047Z,49.70
2018-03-29T14:03:48.548Z,49.70
2018-03-29T14:06:16.851Z,50.40
2018-03-29T14:08:45.115Z,50.40
2018-03-29T14:11:13.396Z,50.00
2018-03-29T14:13:41.663Z,50.30
2018-03-29T14:16:09.179Z,50.30
2018-03-29T14:18:36.684Z,50.10
2018-03-29T14:21:04.951Z,50.20
2018-03-29T14:23:32.496Z,50.20
2018-03-29T14:25:59.997Z,50.40
2018-03-29T14:28:27.514Z,50.70
2018-03-29T14:30:55.807Z,50.50
2018-03-29T14:33:24.135Z,49.90
2018-03-29T14:35:51.654Z,50.00
2018-03-29T14:38:19.965Z,49.80
2018-03-29T14:40:47.487Z,49.80
2018-03-29T14:43:15.028Z,50.00
2018-03-29T14:45:42.543Z,50.00
2018-03-29T14:48:10.053Z,49.60
2018-03-29T14:50:37.603Z,49.00
2018-03-29T14:53:05.131Z,49.20
2018-03-29T14:55:32.651Z,48.80
2018-03-29T14:58:00.935Z,49.20
2018-03-29T15:00:28.438Z,49.20
2018-03-29T15:02:55.943Z,49.60
2018-03-29T15:05:24.220Z,50.30
2018-03-29T15:07:52.479Z,50.30
2018-03-29T15:10:20.018Z,50.20
2018-03-29T15:12:47.614Z,51.10
2018-03-29T15:15:15.883Z,50.80
2018-03-29T15:17:44.143Z,51.50
2018-03-29T15:20:11.652Z,50.80
2018-03-29T15:22:39.155Z,50.60
2018-03-29T15:25:06.650Z,50.40
2018-03-29T15:27:34.912Z,50.80
2018-03-29T15:30:03.188Z,50.90
2018-03-29T15:32:31.475Z,50.90
2018-03-29T15:34:59.739Z,50.90
2018-03-29T15:37:28.016Z,51.30
2018-03-29T15:39:56.294Z,51.80
2018-03-29T15:42:24.566Z,52.10
2018-03-29T15:44:52.848Z,52.20
2018-03-29T15:47:21.115Z,52.40
2018-03-29T15:49:48.638Z,52.40
2018-03-29T15:52:16.167Z,52.20
2018-03-29T15:54:43.676Z,51.70
2018-03-29T15:57:11.175Z,51.90
2018-03-29T15:59:38.693Z,51.90
2018-03-29T16:02:06.229Z,52.40
2018-03-29T16:04:33.719Z,52.90
2018-03-29T16:07:01.221Z,53.10
2018-03-29T16:09:28.720Z,53.20
2018-03-29T16:11:56.213Z,53.60
2018-03-29T16:14:24.492Z,54.40
2018-03-29T16:16:52.805Z,55.00
2018-03-29T16:19:20.351Z,54.90
2018-03-29T16:21:47.879Z,55.50
2018-03-29T16:24:15.747Z,55.80
2018-03-29T16:26:44.038Z,56.50
2018-03-29T16:29:12.343Z,56.50
2018-03-29T16:31:39.862Z,56.50
2018-03-29T16:34:08.171Z,56.80
2018-03-29T16:36:35.688Z,56.80
2018-03-29T16:39:03.252Z,56.70
2018-03-29T16:41:31.572Z,56.70
2018-03-29T16:43:59.121Z,56.70
2018-03-29T16:46:26.696Z,56.40
2018-03-29T16:48:54.361Z,56.30
2018-03-29T16:51:22.024Z,56.60
2018-03-29T16:53:49.579Z,56.60
2018-03-29T16:56:17.107Z,56.70
2018-03-29T16:58:45.419Z,57.00
2018-03-29T17:01:12.954Z,57.60
2018-03-29T17:03:40.451Z,57.20
2018-03-29T17:06:07.959Z,57.00
2018-03-29T17:08:36.246Z,57.10
2018-03-29T17:11:03.746Z,57.10
2018-03-29T17:13:31.259Z,56.90
2018-03-29T17:15:58.755Z,56.90
2018-03-29T17:18:26.279Z,57.10
2018-03-29T17:20:54.556Z,57.00
2018-03-29T17:23:22.063Z,57.00
2018-03-29T17:25:49.564Z,56.80
2018-03-29T17:28:17.826Z,57.20
2018-03-29T17:30:46.099Z,57.60
2018-03-29T17:33:13.605Z,57.20
2018-03-29T17:35:41.110Z,56.90
2018-03-29T17:38:08.602Z,57.20
2018-03-29T17:40:36.143Z,56.90
2018-03-29T17:43:04.432Z,57.00
2018-03-29T17:45:32.695Z,56.80
2018-03-29T17:48:01.024Z,56.90
2018-03-29T17:50:29.261Z,57.20
2018-03-29T17:52:57.519Z,57.50
2018-03-29T17:55:25.831Z,57.70
2018-03-29T17:57:53.336Z,57.70
2018-03-29T18:00:20.855Z,57.90
2018-03-29T18:02:48.371Z,58.00
2018-03-29T18:05:15.906Z,58.20
2018-03-29T18:07:43.407Z,58.30
2018-03-29T18:10:11.667Z,58.50
2018-03-29T18:12:39.931Z,58.20
2018-03-29T18:15:07.464Z,58.10
2018-03-29T18:17:34.959Z,57.80
2018-03-29T18:20:03.235Z,57.80
2018-03-29T18:22:31.500Z,57.90
2018-03-29T18:24:58.996Z,57.80
2018-03-29T18:27:26.508Z,57.90
2018-03-29T18:29:54.028Z,58.00
2018-03-29T18:32:21.527Z,58.10
2018-03-29T18:34:49.020Z,58.40
2018-03-29T18:37:16.532Z,58.60
2018-03-29T18:39:44.055Z,58.70
2018-03-29T18:42:11.551Z,59.90
2018-03-29T18:44:39.063Z,59.90
2018-03-29T18:47:06.564Z,59.90
2018-03-29T18:49:34.055Z,59.80
2018-03-29T18:52:02.331Z,59.70
2018-03-29T18:54:30.596Z,59.90
2018-03-29T18:56:58.086Z,59.80
2018-03-29T18:59:25.583Z,59.90
2018-03-29T19:01:53.099Z,59.60
2018-03-29T19:04:21.363Z,59.70
2018-03-29T19:06:49.623Z,58.60
2018-03-29T19:09:17.120Z,59.30
2018-03-29T19:11:44.623Z,58.40
2018-03-29T19:14:12.127Z,59.00
2018-03-29T19:16:40.403Z,59.30
2018-03-29T19:19:08.683Z,59.10
2018-03-29T19:21:36.192Z,59.10
2018-03-29T19:24:03.689Z,59.00
2018-03-29T19:26:31.962Z,58.80
2018-03-29T19:29:00.223Z,58.50
2018-03-29T19:31:27.731Z,58.50
2018-03-29T19:33:55.243Z,58.50
2018-03-29T19:36:22.741Z,58.30
2018-03-29T19:38:50.272Z,58.20
2018-03-29T19:41:18.527Z,58.20
2018-03-29T19:43:46.038Z,58.10
2018-03-29T19:46:13.539Z,57.70
2018-03-29T19:48:41.031Z,57.80
2018-03-29T19:51:09.298Z,58.00
2018-03-29T19:53:37.567Z,58.30
2018-03-29T19:56:05.839Z,58.80
2018-03-29T19:58:33.353Z,58.10
2018-03-29T20:01:00.846Z,58.20
2018-03-29T20:03:29.107Z,59.00
2018-03-29T20:05:56.599Z,59.10
2018-03-29T20:08:24.886Z,61.70
2018-03-29T20:10:53.139Z,63.10
2018-03-29T20:13:20.633Z,63.10
2018-03-29T20:15:48.141Z,64.90
2018-03-29T20:18:15.627Z,65.80
2018-03-29T20:20:43.898Z,67.30
2018-03-29T20:23:11.388Z,67.20
2018-03-29T20:25:38.921Z,67.50
2018-03-29T20:28:07.180Z,68.70
2018-03-29T20:30:34.685Z,68.70
2018-03-29T20:33:02.214Z,68.70
2018-03-29T20:35:29.693Z,68.60
2018-03-29T20:37:57.179Z,68.80
2018-03-29T20:40:24.710Z,68.70
2018-03-29T20:42:52.951Z,67.30
2018-03-29T20:45:20.534Z,67.20
2018-03-29T20:47:48.787Z,67.70
2018-03-29T20:50:16.283Z,67.60
2018-03-29T20:52:43.778Z,67.60
2018-03-29T20:55:11.287Z,68.00
2018-03-29T20:57:39.543Z,68.40
2018-03-29T21:00:07.030Z,68.40
2018-03-29T21:02:34.576Z,68.50
2018-03-29T21:05:02.828Z,68.20
2018-03-29T21:07:30.327Z,68.00
2018-03-29T21:09:57.820Z,68.10
2018-03-29T21:12:25.323Z,68.10
2018-03-29T21:14:53.579Z,67.40
2018-03-29T21:17:21.071Z,67.30
2018-03-29T21:19:48.591Z,67.10
2018-03-29T21:22:16.100Z,67.20
2018-03-29T21:24:43.587Z,67.40
2018-03-29T21:27:11.094Z,67.80
2018-03-29T21:29:39.351Z,69.00
2018-03-29T21:32:06.839Z,68.90
2018-03-29T21:34:34.344Z,69.20
2018-03-29T21:37:01.843Z,69.20
2018-03-29T21:39:30.091Z,69.20
2018-03-29T21:41:57.590Z,69.10
2018-03-29T21:44:25.109Z,69.20
2018-03-29T21:46:52.610Z,69.20
2018-03-29T21:49:20.183Z,69.50
2018-03-29T21:51:47.709Z,69.40
2018-03-29T21:54:15.963Z,69.90
2018-03-29T21:56:43.462Z,69.90
2018-03-29T21:59:10.962Z,70.10
2018-03-29T22:01:38.450Z,70.60
2018-03-29T22:04:05.979Z,70.30
2018-03-29T22:06:33.487Z,70.60
2018-03-29T22:09:01.753Z,71.10
2018-03-29T22:11:30.006Z,71.60
2018-03-29T22:13:57.496Z,71.50
2018-03-29T22:16:25.755Z,71.90
2018-03-29T22:18:53.258Z,71.90
2018-03-29T22:21:20.759Z,71.40
2018-03-29T22:23:48.259Z,72.00
2018-03-29T22:26:15.767Z,72.20
2018-03-29T22:28:43.260Z,72.00
2018-03-29T22:31:11.540Z,72.40
2018-03-29T22:33:39.794Z,72.20
2018-03-29T22:36:08.072Z,72.20
2018-03-29T22:38:35.566Z,72.20
2018-03-29T22:41:03.075Z,71.70
2018-03-29T22:43:30.566Z,72.40
2018-03-29T22:45:58.823Z,72.20
2018-03-29T22:48:26.323Z,72.20
2018-03-29T22:50:53.810Z,72.30
2018-03-29T22:53:21.307Z,72.10
2018-03-29T22:55:49.579Z,72.30
2018-03-29T22:58:17.835Z,72.30
2018-03-29T23:00:45.318Z,72.20
2018-03-29T23:03:13.586Z,72.30
2018-03-29T23:05:41.847Z,72.30
2018-03-29T23:08:09.351Z,72.30
2018-03-29T23:10:36.846Z,72.30
2018-03-29T23:13:04.348Z,72.20
2018-03-29T23:15:32.615Z,72.00
2018-03-29T23:18:00.103Z,72.00
2018-03-29T23:20:27.601Z,71.90
2018-03-29T23:22:55.111Z,71.80
2018-03-29T23:25:22.616Z,72.00
2018-03-29T23:27:50.148Z,71.80
2018-03-29T23:30:17.655Z,71.40
2018-03-29T23:32:45.163Z,71.30
2018-03-29T23:35:12.655Z,71.20
2018-03-29T23:37:40.150Z,71.20
2018-03-29T23:40:08.415Z,72.20
2018-03-29T23:42:35.914Z,71.30
2018-03-29T23:45:03.419Z,71.50
2018-03-29T23:47:30.925Z,71.70
2018-03-29T23:49:58.498Z,71.80
2018-03-29T23:52:26.016Z,71.60
2018-03-29T23:54:54.287Z,72.00
2018-03-29T23:57:22.559Z,72.10
2018-03-29T23:59:50.047Z,72.10
